createdAt,value
2023-08-03T00:01:11.856Z,15.90
2023-08-03T00:02:45.196Z,15.80
2023-08-03T00:04:18.655Z,15.90
2023-08-03T00:05:51.125Z,15.90
2023-08-03T00:07:24.867Z,15.90
2023-08-03T00:08:58.209Z,15.90
2023-08-03T00:10:30.670Z,15.90
2023-08-03T00:12:06.461Z,15.90
2023-08-03T00:13:39.824Z,15.90
2023-08-03T00:15:14.601Z,16.00
2023-08-03T00:16:48.014Z,15.90
2023-08-03T00:18:20.385Z,15.90
2023-08-03T00:19:53.712Z,15.90
2023-08-03T00:21:27.147Z,15.90
2023-08-03T00:23:00.534Z,15.90
2023-08-03T00:24:32.927Z,15.90
2023-08-03T00:26:06.363Z,15.90
2023-08-03T00:27:40.119Z,15.90
2023-08-03T00:29:13.610Z,15.90
2023-08-03T00:30:47.005Z,15.90
2023-08-03T00:32:19.701Z,15.90
2023-08-03T00:33:53.026Z,15.90
2023-08-03T00:35:25.723Z,15.90
2023-08-03T00:36:59.463Z,15.90
2023-08-03T00:38:32.813Z,15.80
2023-08-03T00:40:06.426Z,15.80
2023-08-03T00:41:40.268Z,15.80
2023-08-03T00:43:14.898Z,15.80
2023-08-03T00:44:47.157Z,15.80
2023-08-03T00:46:20.522Z,15.80
2023-08-03T00:47:53.613Z,15.80
2023-08-03T00:49:28.989Z,15.90
2023-08-03T00:51:02.463Z,15.80
2023-08-03T00:52:35.852Z,15.80
2023-08-03T00:54:09.491Z,15.80
2023-08-03T00:55:42.786Z,15.80
2023-08-03T00:57:15.198Z,15.80
2023-08-03T00:58:50.090Z,15.70
2023-08-03T01:00:25.991Z,15.80
2023-08-03T01:01:58.340Z,15.70
2023-08-03T01:03:31.734Z,15.70
2023-08-03T01:05:04.694Z,15.70
2023-08-03T01:06:39.093Z,15.70
2023-08-03T01:08:11.533Z,15.70
2023-08-03T01:09:45.037Z,15.70
2023-08-03T01:11:17.576Z,15.70
2023-08-03T01:12:51.105Z,15.70
2023-08-03T01:14:25.079Z,15.70
2023-08-03T01:15:59.365Z,15.70
2023-08-03T01:17:31.963Z,15.70
2023-08-03T01:19:06.124Z,15.70
2023-08-03T01:20:41.504Z,15.70
2023-08-03T01:22:16.153Z,15.70
2023-08-03T01:23:49.962Z,15.70
2023-08-03T01:25:24.148Z,15.70
2023-08-03T01:26:59.883Z,15.70
2023-08-03T01:28:33.345Z,15.70
2023-08-03T01:30:08.553Z,15.60
2023-08-03T01:31:42.394Z,15.70
2023-08-03T01:33:16.157Z,15.70
2023-08-03T01:34:48.718Z,15.70
2023-08-03T01:36:22.031Z,15.60
2023-08-03T01:37:54.474Z,15.60
2023-08-03T01:39:29.157Z,15.60
2023-08-03T01:41:01.854Z,15.60
2023-08-03T01:42:35.341Z,15.60
2023-08-03T01:44:25.941Z,15.60
2023-08-03T01:45:59.323Z,15.60
2023-08-03T01:47:33.017Z,15.60
2023-08-03T01:49:06.306Z,15.60
2023-08-03T01:50:39.206Z,15.60
2023-08-03T01:52:13.607Z,15.60
2023-08-03T01:53:46.073Z,15.60
2023-08-03T01:55:20.710Z,15.60
2023-08-03T01:56:55.045Z,15.60
2023-08-03T01:58:28.415Z,15.60
2023-08-03T02:00:00.915Z,15.60
2023-08-03T02:01:34.394Z,15.60
2023-08-03T02:03:07.848Z,15.70
2023-08-03T02:04:40.601Z,15.60
2023-08-03T02:06:15.348Z,15.60
2023-08-03T02:07:55.125Z,15.60
2023-08-03T02:09:28.760Z,15.70
2023-08-03T02:11:02.439Z,15.60
2023-08-03T02:12:35.819Z,15.60
2023-08-03T02:14:08.181Z,15.60
2023-08-03T02:15:42.500Z,15.60
2023-08-03T02:17:15.689Z,15.50
2023-08-03T02:18:49.119Z,15.60
2023-08-03T02:20:23.334Z,15.60
2023-08-03T02:21:55.849Z,15.50
2023-08-03T02:23:29.299Z,15.50
2023-08-03T02:25:01.689Z,15.50
2023-08-03T02:26:36.578Z,15.50
2023-08-03T02:28:08.896Z,15.60
2023-08-03T02:29:42.490Z,15.50
2023-08-03T02:31:15.019Z,15.70
2023-08-03T02:32:53.258Z,15.50
2023-08-03T02:34:28.875Z,15.60
2023-08-03T02:36:05.746Z,15.50
2023-08-03T02:37:38.913Z,15.50
2023-08-03T02:39:19.567Z,15.50
2023-08-03T02:40:53.018Z,15.50
2023-08-03T02:42:27.230Z,15.70
2023-08-03T02:44:01.394Z,15.50
2023-08-03T02:45:37.184Z,15.50
2023-08-03T02:47:12.408Z,15.50
2023-08-03T02:48:44.892Z,15.60
2023-08-03T02:50:18.582Z,15.50
2023-08-03T02:51:52.537Z,15.50
2023-08-03T02:53:31.157Z,15.50
2023-08-03T02:55:04.510Z,15.50
2023-08-03T02:56:38.783Z,15.50
2023-08-03T02:58:13.537Z,15.50
2023-08-03T02:59:46.050Z,15.50
2023-08-03T03:01:21.849Z,15.50
2023-08-03T03:02:56.632Z,15.50
2023-08-03T03:04:35.218Z,15.60
2023-08-03T03:06:08.578Z,15.50
2023-08-03T03:07:42.503Z,15.60
2023-08-03T03:09:15.038Z,15.50
2023-08-03T03:10:52.571Z,15.50
2023-08-03T03:12:25.060Z,15.50
2023-08-03T03:14:00.747Z,15.50
2023-08-03T03:15:35.640Z,15.50
2023-08-03T03:17:08.564Z,15.50
2023-08-03T03:18:42.647Z,15.50
2023-08-03T03:20:15.227Z,15.50
2023-08-03T03:21:50.332Z,15.50
2023-08-03T03:23:23.454Z,15.50
2023-08-03T03:24:56.905Z,15.40
2023-08-03T03:26:29.268Z,15.60
2023-08-03T03:28:05.593Z,15.50
2023-08-03T03:29:42.905Z,15.50
2023-08-03T03:31:16.441Z,15.40
2023-08-03T03:32:49.202Z,15.40
2023-08-03T03:34:22.584Z,15.40
2023-08-03T03:35:55.338Z,15.50
2023-08-03T03:37:28.747Z,15.50
2023-08-03T03:39:01.137Z,15.40
2023-08-03T03:40:34.547Z,15.40
2023-08-03T03:42:08.370Z,15.50
2023-08-03T03:43:42.152Z,15.40
2023-08-03T03:45:16.124Z,15.50
2023-08-03T03:46:50.152Z,15.50
2023-08-03T03:48:24.018Z,15.50
2023-08-03T03:49:57.652Z,15.50
2023-08-03T03:51:30.553Z,15.50
2023-08-03T03:53:05.933Z,15.50
2023-08-03T03:54:41.727Z,15.50
2023-08-03T03:56:14.336Z,15.40
2023-08-03T03:57:47.968Z,15.50
2023-08-03T03:59:20.481Z,15.50
2023-08-03T04:00:55.172Z,15.50
2023-08-03T04:02:27.783Z,15.60
2023-08-03T04:04:03.261Z,15.50
2023-08-03T04:05:37.985Z,15.50
2023-08-03T04:07:10.476Z,15.50
2023-08-03T04:08:44.004Z,15.50
2023-08-03T04:10:16.557Z,15.50
2023-08-03T04:11:50.035Z,15.50
2023-08-03T04:13:22.559Z,15.50
2023-08-03T04:14:56.599Z,15.50
2023-08-03T04:16:30.348Z,15.50
2023-08-03T04:18:03.923Z,15.40
2023-08-03T04:19:39.582Z,15.50
2023-08-03T04:21:13.390Z,15.50
2023-08-03T04:22:47.055Z,15.50
2023-08-03T04:24:22.116Z,15.40
2023-08-03T04:25:54.502Z,15.40
2023-08-03T04:27:30.355Z,15.40
2023-08-03T04:29:02.928Z,15.40
2023-08-03T04:30:38.078Z,15.40
2023-08-03T04:32:13.069Z,15.40
2023-08-03T04:33:45.437Z,15.50
2023-08-03T04:35:18.757Z,15.60
2023-08-03T04:36:57.324Z,15.50
2023-08-03T04:38:29.789Z,15.50
2023-08-03T04:40:08.429Z,15.50
2023-08-03T04:41:40.911Z,15.50
2023-08-03T04:43:14.464Z,15.40
2023-08-03T04:44:46.905Z,15.50
2023-08-03T04:46:20.457Z,15.50
2023-08-03T04:47:56.073Z,15.50
2023-08-03T04:49:30.489Z,15.50
2023-08-03T04:51:04.045Z,15.50
2023-08-03T04:52:37.406Z,15.50
2023-08-03T04:54:09.746Z,15.50
2023-08-03T04:55:44.813Z,15.50
2023-08-03T04:57:17.154Z,15.50
2023-08-03T04:58:50.506Z,15.50
2023-08-03T05:00:23.214Z,15.50
2023-08-03T05:01:57.346Z,15.50
2023-08-03T05:03:31.580Z,15.60
2023-08-03T05:05:05.604Z,15.50
2023-08-03T05:06:39.256Z,15.50
2023-08-03T05:08:12.698Z,15.50
2023-08-03T05:09:45.195Z,15.50
2023-08-03T05:11:18.528Z,15.60
2023-08-03T05:12:50.827Z,15.50
2023-08-03T05:14:24.192Z,15.50
2023-08-03T05:15:57.895Z,15.50
2023-08-03T05:17:31.388Z,15.70
2023-08-03T05:19:06.659Z,15.60
2023-08-03T05:20:39.215Z,15.60
2023-08-03T05:22:12.656Z,15.60
2023-08-03T05:23:45.029Z,15.60
2023-08-03T05:25:18.516Z,15.70
2023-08-03T05:26:50.996Z,15.60
2023-08-03T05:28:25.522Z,15.60
2023-08-03T05:29:59.552Z,15.70
2023-08-03T05:31:33.376Z,15.70
2023-08-03T05:33:05.973Z,15.70
2023-08-03T05:34:40.815Z,15.70
2023-08-03T05:36:13.384Z,15.70
2023-08-03T05:37:46.941Z,15.70
2023-08-03T05:39:19.503Z,15.70
2023-08-03T05:40:52.952Z,15.70
2023-08-03T05:42:28.446Z,15.70
2023-08-03T05:44:02.617Z,15.70
2023-08-03T05:45:38.099Z,15.70
2023-08-03T05:47:16.313Z,15.80
2023-08-03T05:48:50.045Z,15.80
2023-08-03T05:50:25.046Z,15.80
2023-08-03T05:51:58.897Z,15.80
2023-08-03T05:53:32.953Z,15.80
2023-08-03T05:55:11.269Z,15.80
2023-08-03T05:56:44.725Z,15.80
2023-08-03T05:58:18.736Z,15.80
2023-08-03T05:59:52.103Z,15.80
2023-08-03T06:01:25.128Z,15.80
2023-08-03T06:03:01.967Z,15.80
2023-08-03T06:04:37.042Z,15.80
2023-08-03T06:06:13.184Z,15.80
2023-08-03T06:07:45.850Z,15.80
2023-08-03T06:09:23.610Z,15.90
2023-08-03T06:10:58.369Z,15.80
2023-08-03T06:12:32.518Z,15.80
2023-08-03T06:14:07.229Z,15.90
2023-08-03T06:15:39.629Z,16.00
2023-08-03T06:17:14.784Z,15.90
2023-08-03T06:18:50.642Z,15.90
2023-08-03T06:20:25.405Z,15.90
2023-08-03T06:22:03.755Z,15.90
2023-08-03T06:23:40.214Z,15.90
2023-08-03T06:25:13.593Z,15.90
2023-08-03T06:26:48.404Z,15.90
2023-08-03T06:28:22.917Z,15.80
2023-08-03T06:29:56.321Z,15.80
2023-08-03T06:31:35.347Z,15.80
2023-08-03T06:33:11.789Z,15.80
2023-08-03T06:34:44.209Z,15.90
2023-08-03T06:36:21.520Z,15.80
2023-08-03T06:37:56.362Z,15.80
2023-08-03T06:39:30.284Z,15.90
2023-08-03T06:41:03.349Z,15.80
2023-08-03T06:42:36.978Z,15.80
2023-08-03T06:44:09.689Z,15.80
2023-08-03T06:45:44.426Z,15.80
2023-08-03T06:47:18.031Z,15.80
2023-08-03T06:48:52.963Z,15.80
2023-08-03T06:50:26.470Z,15.80
2023-08-03T06:52:00.021Z,15.80
2023-08-03T06:53:35.173Z,15.80
2023-08-03T06:55:08.866Z,15.80
2023-08-03T06:56:42.108Z,15.80
2023-08-03T06:58:14.476Z,15.80
2023-08-03T06:59:47.834Z,15.80
2023-08-03T07:01:21.480Z,15.80
2023-08-03T07:02:57.506Z,15.70
2023-08-03T07:04:32.420Z,15.80
2023-08-03T07:06:06.323Z,15.80
2023-08-03T07:07:38.838Z,15.70
2023-08-03T07:09:13.514Z,15.80
2023-08-03T07:10:45.856Z,15.80
2023-08-03T07:12:19.234Z,15.80
2023-08-03T07:13:52.590Z,15.80
2023-08-03T07:15:24.943Z,15.80
2023-08-03T07:16:58.282Z,15.80
2023-08-03T07:18:30.639Z,15.80
2023-08-03T07:20:04.353Z,15.80
2023-08-03T07:21:37.649Z,15.80
2023-08-03T07:23:11.067Z,15.70
2023-08-03T07:24:45.504Z,15.80
2023-08-03T07:26:18.972Z,15.70
2023-08-03T07:27:52.248Z,15.80
2023-08-03T07:29:25.686Z,15.70
2023-08-03T07:30:59.159Z,15.70
2023-08-03T07:32:31.730Z,15.70
2023-08-03T07:34:05.040Z,15.70
2023-08-03T07:35:42.175Z,15.70
2023-08-03T07:37:30.734Z,15.70
2023-08-03T07:39:03.337Z,15.70
2023-08-03T07:40:40.021Z,15.70
2023-08-03T07:42:12.523Z,15.80
2023-08-03T07:43:46.345Z,15.70
2023-08-03T07:46:55.394Z,15.70
2023-08-03T07:48:28.776Z,15.70
2023-08-03T07:50:04.660Z,15.60
2023-08-03T07:51:38.675Z,15.70
2023-08-03T07:53:12.016Z,15.70
2023-08-03T07:54:44.426Z,15.70
2023-08-03T07:56:20.166Z,15.70
2023-08-03T07:57:53.658Z,15.70
2023-08-03T07:59:26.075Z,15.60
2023-08-03T08:01:07.088Z,15.70
2023-08-03T08:02:40.671Z,15.70
2023-08-03T08:04:15.104Z,15.60
2023-08-03T08:05:48.550Z,15.70
2023-08-03T08:07:21.143Z,15.70
2023-08-03T08:08:54.819Z,15.70
2023-08-03T08:10:28.583Z,15.70
2023-08-03T08:12:02.378Z,15.70
2023-08-03T08:13:36.095Z,15.70
2023-08-03T08:15:10.011Z,15.60
2023-08-03T08:16:42.988Z,15.70
2023-08-03T08:18:16.376Z,15.70
2023-08-03T08:19:51.848Z,15.70
2023-08-03T08:21:25.219Z,15.70
2023-08-03T08:23:01.627Z,15.70
2023-08-03T08:24:34.133Z,15.70
2023-08-03T08:26:13.000Z,15.70
2023-08-03T08:27:47.030Z,15.70
2023-08-03T08:29:22.316Z,15.70
2023-08-03T08:30:54.914Z,15.70
2023-08-03T08:32:28.412Z,15.80
2023-08-03T08:34:02.030Z,15.70
2023-08-03T08:35:34.739Z,15.70
2023-08-03T08:37:08.467Z,15.70
2023-08-03T08:38:41.213Z,15.70
2023-08-03T08:40:14.667Z,15.90
2023-08-03T08:41:49.979Z,15.70
2023-08-03T08:43:25.216Z,15.80
2023-08-03T08:44:57.905Z,15.80
2023-08-03T08:46:31.689Z,15.80
2023-08-03T08:49:46.789Z,15.80
2023-08-03T09:01:06.568Z,15.80
2023-08-03T09:02:39.418Z,15.80
2023-08-03T09:07:36.613Z,15.90
2023-08-03T09:09:10.217Z,15.90
2023-08-03T09:10:51.564Z,15.90
2023-08-03T09:12:28.984Z,15.90
2023-08-03T09:14:02.896Z,15.90
2023-08-03T09:15:42.280Z,15.90
2023-08-03T09:17:19.617Z,15.90
2023-08-03T09:18:53.594Z,15.90
2023-08-03T09:22:04.050Z,16.00
2023-08-03T09:25:21.054Z,16.00
2023-08-03T09:27:01.735Z,16.00
2023-08-03T09:28:39.222Z,16.10
2023-08-03T09:32:27.156Z,16.10
2023-08-03T09:34:02.618Z,16.10
2023-08-03T09:37:13.560Z,16.20
2023-08-03T09:38:46.079Z,16.20
2023-08-03T09:40:21.109Z,16.30
2023-08-03T09:40:47.410Z,16.00
2023-08-03T09:41:58.400Z,16.30
2023-08-03T09:43:35.976Z,16.30
2023-08-03T09:46:50.694Z,16.30
2023-08-03T09:48:26.075Z,16.30
2023-08-03T09:49:59.978Z,16.30
2023-08-03T09:51:37.182Z,16.30
2023-08-03T09:53:20.751Z,16.40
2023-08-03T09:56:45.269Z,16.30
2023-08-03T09:58:25.736Z,16.40
2023-08-03T10:00:07.181Z,16.40
2023-08-03T10:01:49.201Z,16.30
2023-08-03T10:03:22.976Z,16.40
2023-08-03T10:05:03.590Z,16.40
2023-08-03T10:06:40.898Z,16.30
2023-08-03T10:08:24.084Z,16.40
2023-08-03T10:10:00.129Z,16.30
2023-08-03T10:11:40.979Z,16.40
2023-08-03T10:13:16.730Z,16.40
2023-08-03T10:14:53.044Z,16.50
2023-08-03T10:16:27.950Z,16.40
2023-08-03T10:18:02.073Z,16.40
2023-08-03T10:19:37.121Z,16.40
2023-08-03T10:21:13.045Z,16.40
2023-08-03T10:23:11.002Z,16.60
2023-08-03T10:25:20.458Z,16.50
2023-08-03T10:26:56.520Z,16.50
2023-08-03T10:28:47.291Z,16.50
2023-08-03T10:30:20.661Z,16.60
2023-08-03T10:31:55.940Z,16.60
2023-08-03T10:34:24.731Z,16.60
2023-08-03T10:35:57.087Z,16.70
2023-08-03T10:37:31.713Z,16.70
2023-08-03T10:39:05.609Z,16.70
2023-08-03T10:40:39.065Z,16.80
2023-08-03T10:42:29.582Z,16.80
2023-08-03T10:44:28.512Z,16.90
2023-08-03T10:46:32.432Z,16.80
2023-08-03T10:48:32.578Z,16.80
2023-08-03T10:50:07.651Z,16.90
2023-08-03T10:51:40.040Z,16.90
2023-08-03T10:53:14.743Z,16.90
2023-08-03T10:54:47.798Z,16.90
2023-08-03T10:56:21.261Z,17.00
2023-08-03T10:57:56.019Z,17.00
2023-08-03T10:59:28.220Z,17.00
2023-08-03T11:01:01.743Z,17.10
2023-08-03T11:02:36.049Z,17.10
2023-08-03T11:04:10.122Z,17.10
2023-08-03T11:05:44.600Z,17.20
2023-08-03T11:07:21.597Z,17.20
2023-08-03T11:08:57.016Z,17.20
2023-08-03T11:10:31.217Z,17.20
2023-08-03T11:12:04.916Z,17.20
2023-08-03T11:13:41.047Z,17.20
2023-08-03T11:15:19.050Z,17.20
2023-08-03T11:16:51.625Z,17.30
2023-08-03T11:18:25.754Z,17.30
2023-08-03T11:20:01.676Z,17.30
2023-08-03T11:21:34.523Z,17.30
2023-08-03T11:23:07.797Z,17.50
2023-08-03T11:24:43.714Z,17.30
2023-08-03T11:26:18.745Z,17.40
2023-08-03T11:27:52.838Z,17.40
2023-08-03T11:29:26.553Z,17.40
2023-08-03T11:30:58.931Z,17.50
2023-08-03T11:32:35.033Z,17.50
2023-08-03T11:34:07.600Z,17.50
2023-08-03T11:35:42.992Z,17.50
2023-08-03T11:37:17.267Z,17.50
2023-08-03T11:38:52.500Z,17.50
2023-08-03T11:40:27.423Z,17.60
2023-08-03T11:42:01.660Z,17.60
2023-08-03T11:43:35.174Z,17.60
2023-08-03T11:45:09.127Z,17.60
2023-08-03T11:46:43.455Z,17.60
2023-08-03T11:48:20.513Z,17.60
2023-08-03T11:49:54.617Z,17.60
2023-08-03T11:51:34.864Z,17.60
2023-08-03T11:53:18.621Z,17.60
2023-08-03T11:54:53.355Z,17.60
2023-08-03T11:56:41.961Z,17.60
2023-08-03T11:58:16.950Z,17.50
2023-08-03T11:59:52.181Z,17.50
2023-08-03T12:01:27.852Z,17.60
2023-08-03T12:04:35.544Z,17.50
2023-08-03T12:06:48.468Z,17.50
2023-08-03T12:08:06.898Z,17.50
2023-08-03T12:09:43.323Z,17.40
2023-08-03T12:11:24.474Z,17.40
2023-08-03T12:13:02.326Z,17.50
2023-08-03T12:14:35.418Z,17.40
2023-08-03T12:16:08.936Z,17.50
2023-08-03T12:17:42.486Z,17.30
2023-08-03T12:19:16.029Z,17.30
2023-08-03T12:20:50.382Z,17.40
2023-08-03T12:22:23.735Z,17.40
2023-08-03T12:23:56.305Z,17.40
2023-08-03T12:25:31.275Z,17.30
2023-08-03T12:27:10.253Z,17.30
2023-08-03T12:28:45.629Z,17.40
2023-08-03T12:30:18.969Z,17.40
2023-08-03T12:31:51.673Z,17.50
2023-08-03T12:33:25.325Z,17.50
2023-08-03T12:34:58.967Z,17.50
2023-08-03T12:36:31.686Z,17.60
2023-08-03T12:38:06.026Z,17.60
2023-08-03T12:39:40.401Z,17.70
2023-08-03T12:41:14.719Z,17.70
2023-08-03T12:42:48.166Z,17.70
2023-08-03T12:44:22.220Z,17.80
2023-08-03T12:45:56.963Z,17.80
2023-08-03T12:49:09.219Z,17.90
2023-08-03T12:50:41.680Z,17.90
2023-08-03T12:52:15.034Z,18.10
2023-08-03T12:53:47.772Z,18.00
2023-08-03T12:55:24.237Z,18.10
2023-08-03T12:56:56.642Z,18.10
2023-08-03T12:58:30.194Z,18.20
2023-08-03T13:00:06.250Z,18.10
2023-08-03T13:01:39.597Z,18.20
2023-08-03T13:03:12.378Z,18.20
2023-08-03T13:04:47.117Z,18.20
2023-08-03T13:06:22.250Z,18.20
2023-08-03T13:07:54.634Z,18.20
2023-08-03T13:09:28.666Z,18.20
2023-08-03T13:11:02.708Z,18.30
2023-08-03T13:12:35.452Z,18.20
2023-08-03T13:14:13.710Z,18.20
2023-08-03T13:15:54.707Z,18.20
2023-08-03T13:17:28.493Z,18.30
2023-08-03T13:19:02.050Z,18.30
2023-08-03T13:20:39.782Z,18.30
2023-08-03T13:22:12.544Z,18.30
2023-08-03T13:23:47.891Z,18.30
2023-08-03T13:25:20.583Z,18.30
2023-08-03T13:27:13.276Z,18.30
2023-08-03T13:28:51.448Z,18.30
2023-08-03T13:30:23.984Z,18.30
2023-08-03T13:31:58.827Z,18.40
2023-08-03T13:33:32.492Z,18.30
2023-08-03T13:35:05.678Z,18.30
2023-08-03T13:36:39.064Z,18.30
2023-08-03T13:38:12.374Z,18.30
2023-08-03T13:39:44.784Z,18.30
2023-08-03T13:41:18.944Z,18.30
2023-08-03T13:42:51.345Z,18.40
2023-08-03T13:44:24.757Z,18.30
2023-08-03T13:45:57.531Z,18.40
2023-08-03T13:47:32.460Z,18.40
2023-08-03T13:49:04.901Z,18.40
2023-08-03T13:50:38.478Z,18.40
2023-08-03T13:52:11.049Z,18.40
2023-08-03T13:53:45.060Z,18.40
2023-08-03T13:55:18.497Z,18.50
2023-08-03T13:56:59.940Z,18.50
2023-08-03T13:58:47.533Z,18.50
2023-08-03T14:00:21.400Z,18.60
2023-08-03T14:03:35.174Z,18.60
2023-08-03T14:05:08.987Z,18.70
2023-08-03T14:08:18.343Z,18.70
2023-08-03T14:10:26.463Z,18.80
2023-08-03T14:16:54.716Z,18.90
2023-08-03T14:23:21.851Z,18.90
2023-08-03T14:26:31.463Z,18.90
2023-08-03T14:29:01.316Z,18.90
2023-08-03T14:30:01.577Z,18.90
2023-08-03T14:31:34.934Z,19.00
2023-08-03T14:33:08.776Z,18.90
2023-08-03T14:36:19.143Z,18.90
2023-08-03T14:37:52.765Z,18.80
2023-08-03T14:39:26.424Z,18.90
2023-08-03T14:40:58.820Z,18.90
2023-08-03T14:42:32.599Z,18.90
2023-08-03T14:44:06.032Z,18.80
2023-08-03T14:45:47.329Z,18.90
2023-08-03T14:47:22.183Z,18.90
2023-08-03T14:49:00.600Z,18.90
2023-08-03T14:50:43.212Z,18.90
2023-08-03T14:54:07.406Z,18.90
2023-08-03T14:57:28.111Z,18.80
2023-08-03T14:59:01.447Z,18.80
2023-08-03T15:00:38.094Z,18.80
2023-08-03T15:02:12.145Z,18.80
2023-08-03T15:03:44.682Z,18.80
2023-08-03T15:05:18.585Z,18.80
2023-08-03T15:06:51.983Z,18.80
2023-08-03T15:08:26.864Z,18.70
2023-08-03T15:09:59.325Z,18.70
2023-08-03T15:11:34.879Z,18.60
2023-08-03T15:13:07.640Z,18.70
2023-08-03T15:14:48.468Z,18.70
2023-08-03T15:17:59.650Z,18.60
2023-08-03T15:19:40.483Z,18.70
2023-08-03T15:21:21.508Z,18.60
2023-08-03T15:22:55.238Z,18.60
2023-08-03T15:24:31.081Z,18.60
2023-08-03T15:26:05.919Z,18.60
2023-08-03T15:29:52.920Z,18.60
2023-08-03T15:31:26.073Z,18.60
2023-08-03T15:34:44.643Z,18.60
2023-08-03T15:36:38.871Z,18.60
2023-08-03T15:38:14.720Z,18.50
2023-08-03T15:39:53.158Z,18.60
2023-08-03T15:41:30.404Z,18.60
2023-08-03T15:43:11.148Z,18.50
2023-08-03T15:44:49.241Z,18.50
2023-08-03T15:46:37.709Z,18.50
2023-08-03T15:48:56.747Z,18.50
2023-08-03T15:50:17.647Z,18.50
2023-08-03T15:51:57.800Z,18.40
2023-08-03T15:53:38.983Z,18.40
2023-08-03T15:57:01.173Z,18.30
2023-08-03T15:58:34.513Z,18.30
2023-08-03T16:00:10.706Z,18.30
2023-08-03T16:01:46.190Z,18.20
2023-08-03T16:03:25.091Z,18.30
2023-08-03T16:04:57.475Z,18.20
2023-08-03T16:06:31.182Z,18.20
2023-08-03T16:08:04.227Z,18.20
2023-08-03T16:09:37.861Z,18.20
2023-08-03T16:11:12.421Z,18.20
2023-08-03T16:12:46.152Z,18.20
2023-08-03T16:14:19.919Z,18.20
2023-08-03T16:16:00.632Z,18.20
2023-08-03T16:17:34.581Z,18.10
2023-08-03T16:19:08.502Z,18.20
2023-08-03T16:20:41.295Z,18.10
2023-08-03T16:22:15.060Z,18.20
2023-08-03T16:23:47.598Z,18.20
2023-08-03T16:25:23.764Z,18.20
2023-08-03T16:26:58.459Z,18.00
2023-08-03T16:28:31.788Z,18.20
2023-08-03T16:30:07.565Z,18.10
2023-08-03T16:33:27.540Z,18.20
2023-08-03T16:35:04.438Z,18.10
2023-08-03T16:36:39.815Z,18.10
2023-08-03T16:38:13.863Z,18.10
2023-08-03T16:39:51.263Z,18.10
2023-08-03T16:41:25.895Z,18.10
2023-08-03T16:43:00.505Z,18.00
2023-08-03T16:44:35.038Z,18.00
2023-08-03T16:46:09.142Z,18.10
2023-08-03T16:47:43.518Z,18.00
2023-08-03T16:49:20.600Z,18.00
2023-08-03T16:50:54.548Z,17.90
2023-08-03T16:52:56.133Z,17.90
2023-08-03T16:54:29.851Z,17.90
2023-08-03T16:56:06.251Z,17.90
2023-08-03T16:57:41.012Z,17.80
2023-08-03T16:59:16.361Z,17.80
2023-08-03T17:00:52.484Z,17.80
2023-08-03T17:02:26.117Z,17.80
2023-08-03T17:04:02.248Z,17.70
2023-08-03T17:05:35.278Z,17.70
2023-08-03T17:07:12.262Z,17.70
2023-08-03T17:08:45.361Z,17.70
2023-08-03T17:10:20.524Z,17.70
2023-08-03T17:11:53.184Z,17.70
2023-08-03T17:13:32.363Z,17.70
2023-08-03T17:15:08.762Z,17.70
2023-08-03T17:16:42.439Z,17.70
2023-08-03T17:18:15.434Z,17.70
2023-08-03T17:19:49.309Z,17.60
2023-08-03T17:21:21.808Z,17.60
2023-08-03T17:23:07.935Z,17.60
2023-08-03T17:24:40.927Z,17.50
2023-08-03T17:26:14.938Z,17.60
2023-08-03T17:27:49.154Z,17.60
2023-08-03T17:29:23.301Z,17.60
2023-08-03T17:31:02.942Z,17.60
2023-08-03T17:32:36.538Z,17.50
2023-08-03T17:34:10.752Z,17.60
2023-08-03T17:35:45.197Z,17.60
2023-08-03T17:37:18.279Z,17.60
2023-08-03T17:38:51.923Z,17.50
2023-08-03T17:40:26.227Z,17.50
2023-08-03T17:42:03.309Z,17.50
2023-08-03T17:43:36.149Z,17.50
2023-08-03T17:45:13.121Z,17.50
2023-08-03T17:46:47.502Z,17.50
2023-08-03T17:48:24.566Z,17.50
2023-08-03T17:49:59.037Z,17.50
2023-08-03T17:51:33.944Z,17.50
2023-08-03T17:53:09.175Z,17.50
2023-08-03T17:54:42.715Z,17.50
2023-08-03T17:56:17.958Z,17.40
2023-08-03T17:57:51.500Z,17.40
2023-08-03T17:59:25.209Z,17.40
2023-08-03T18:00:59.177Z,17.40
2023-08-03T18:02:35.057Z,17.40
2023-08-03T18:04:11.136Z,17.40
2023-08-03T18:05:44.228Z,17.20
2023-08-03T18:07:18.457Z,17.30
2023-08-03T18:08:51.443Z,17.30
2023-08-03T18:10:24.936Z,17.30
2023-08-03T18:12:00.156Z,17.30
2023-08-03T18:13:34.039Z,17.30
2023-08-03T18:15:09.600Z,17.30
2023-08-03T18:16:43.369Z,17.30
2023-08-03T18:18:17.612Z,17.30
2023-08-03T18:19:54.680Z,17.30
2023-08-03T18:21:27.881Z,17.30
2023-08-03T18:23:01.560Z,17.30
2023-08-03T18:24:35.103Z,17.20
2023-08-03T18:26:07.571Z,17.30
2023-08-03T18:27:41.280Z,17.20
2023-08-03T18:29:13.830Z,17.20
2023-08-03T18:30:47.902Z,17.20
2023-08-03T18:32:21.327Z,17.20
2023-08-03T18:33:55.232Z,17.20
2023-08-03T18:35:30.334Z,17.20
2023-08-03T18:37:05.385Z,17.20
2023-08-03T18:38:39.724Z,17.20
2023-08-03T18:40:13.817Z,17.10
2023-08-03T18:41:47.518Z,17.10
2023-08-03T18:43:20.070Z,17.10
2023-08-03T18:44:53.499Z,17.10
2023-08-03T18:46:27.470Z,17.10
2023-08-03T18:48:00.516Z,17.10
2023-08-03T18:49:37.126Z,17.10
2023-08-03T18:51:11.399Z,17.00
2023-08-03T18:54:19.461Z,17.10
2023-08-03T18:55:51.988Z,17.10
2023-08-03T18:57:25.754Z,17.10
2023-08-03T18:59:00.202Z,17.00
2023-08-03T19:00:37.430Z,17.00
2023-08-03T19:02:13.801Z,17.00
2023-08-03T19:03:53.160Z,16.90
2023-08-03T19:05:33.999Z,17.00
2023-08-03T19:07:17.693Z,16.90
2023-08-03T19:08:56.601Z,16.90
2023-08-03T19:10:32.268Z,16.90
2023-08-03T19:12:09.596Z,16.90
2023-08-03T19:13:47.726Z,16.90
2023-08-03T19:15:24.180Z,16.90
2023-08-03T19:16:58.061Z,16.80
2023-08-03T19:18:31.022Z,16.80
2023-08-03T19:20:05.147Z,16.80
2023-08-03T19:21:40.019Z,16.80
2023-08-03T19:23:13.512Z,16.80
2023-08-03T19:24:47.373Z,16.80
2023-08-03T19:26:19.953Z,16.70
2023-08-03T19:27:55.610Z,16.70
2023-08-03T19:29:29.119Z,16.70
2023-08-03T19:31:01.795Z,16.80
2023-08-03T19:32:35.573Z,16.70
2023-08-03T19:34:08.705Z,16.80
2023-08-03T19:35:45.860Z,16.70
2023-08-03T19:37:20.097Z,16.70
2023-08-03T19:38:53.506Z,16.70
2023-08-03T19:40:25.936Z,16.70
2023-08-03T19:42:01.529Z,16.60
2023-08-03T19:43:35.620Z,16.60
2023-08-03T19:45:13.337Z,16.60
2023-08-03T19:46:46.963Z,16.60
2023-08-03T19:48:20.868Z,16.60
2023-08-03T20:00:50.781Z,16.60
2023-08-03T20:03:24.488Z,16.60
2023-08-03T20:06:12.972Z,16.60
2023-08-03T20:06:51.231Z,16.60
2023-08-03T20:10:23.858Z,16.60
2023-08-03T20:11:56.603Z,16.50
2023-08-03T20:13:30.225Z,16.50
2023-08-03T20:16:42.310Z,16.50
2023-08-03T20:19:54.045Z,16.40
2023-08-03T20:21:26.547Z,16.40
2023-08-03T20:23:00.106Z,16.50
2023-08-03T20:24:34.261Z,16.50
2023-08-03T20:26:10.712Z,16.40
2023-08-03T20:27:44.452Z,16.40
2023-08-03T20:29:21.216Z,16.40
2023-08-03T20:30:55.591Z,16.40
2023-08-03T20:32:29.182Z,16.40
2023-08-03T20:35:39.596Z,16.50
2023-08-03T20:37:12.218Z,16.30
2023-08-03T20:38:57.626Z,16.40
2023-08-03T20:47:44.831Z,16.30
2023-08-03T20:48:59.902Z,16.30
2023-08-03T20:52:12.050Z,16.30
2023-08-03T20:53:44.542Z,16.30
2023-08-03T20:55:18.541Z,16.30
2023-08-03T20:56:52.430Z,16.30
2023-08-03T20:58:32.266Z,16.40
2023-08-03T21:00:07.170Z,16.30
2023-08-03T21:01:41.147Z,16.30
2023-08-03T21:03:15.240Z,16.30
2023-08-03T21:04:50.161Z,16.20
2023-08-03T21:06:22.933Z,16.20
2023-08-03T21:07:56.505Z,16.20
2023-08-03T21:09:30.151Z,16.30
2023-08-03T21:11:03.307Z,16.20
2023-08-03T21:12:39.087Z,16.20
2023-08-03T21:14:11.542Z,16.20
2023-08-03T21:15:45.427Z,16.20
2023-08-03T21:17:19.009Z,16.20
2023-08-03T21:20:28.398Z,16.10
2023-08-03T21:22:02.183Z,16.10
2023-08-03T21:23:34.624Z,16.10
2023-08-03T21:25:09.029Z,16.20
2023-08-03T21:26:42.841Z,16.10
2023-08-03T21:28:16.712Z,16.10
2023-08-03T21:29:52.442Z,16.10
2023-08-03T21:31:26.015Z,16.10
2023-08-03T21:32:58.738Z,16.10
2023-08-03T21:34:32.311Z,16.10
2023-08-03T21:36:05.542Z,16.10
2023-08-03T21:37:39.521Z,16.10
2023-08-03T21:39:12.083Z,16.10
2023-08-03T21:40:45.553Z,16.10
2023-08-03T21:42:19.036Z,16.00
2023-08-03T21:43:53.825Z,16.00
2023-08-03T21:45:26.463Z,16.00
2023-08-03T21:47:00.262Z,16.00
2023-08-03T21:48:32.964Z,16.10
2023-08-03T21:50:08.137Z,16.00
2023-08-03T21:51:41.793Z,16.00
2023-08-03T21:53:14.310Z,16.00